createdAt,value
2023-04-12T00:00:38.091Z,3.70
2023-04-12T00:03:07.761Z,3.30
2023-04-12T00:05:36.266Z,3.20
2023-04-12T00:08:05.168Z,4.13
2023-04-12T00:10:33.433Z,5.03
2023-04-12T00:13:01.657Z,5.93
2023-04-12T00:15:31.237Z,4.67
2023-04-12T00:18:00.199Z,5.10
2023-04-12T00:20:29.074Z,4.70
2023-04-12T00:22:57.680Z,4.37
2023-04-12T00:25:26.361Z,4.30
2023-04-12T00:27:54.613Z,3.40
2023-04-12T00:30:23.645Z,3.07
2023-04-12T00:32:53.205Z,2.80
2023-04-12T00:35:21.778Z,3.00
2023-04-12T00:37:51.545Z,5.10
2023-04-12T00:40:20.202Z,3.67
2023-04-12T00:42:48.390Z,5.97
2023-04-12T00:45:16.820Z,6.47
2023-04-12T00:47:45.364Z,5.40
2023-04-12T00:50:15.732Z,4.90
2023-04-12T00:52:44.305Z,3.77
2023-04-12T00:55:12.728Z,4.00
2023-04-12T00:57:41.571Z,3.57
2023-04-12T01:00:14.032Z,2.60
2023-04-12T01:02:47.016Z,2.80
2023-04-12T01:05:21.939Z,2.93
2023-04-12T01:08:00.756Z,2.83
2023-04-12T01:10:40.633Z,3.10
2023-04-12T01:13:18.192Z,3.20
2023-04-12T01:15:54.704Z,2.83
2023-04-12T01:18:28.036Z,3.30
2023-04-12T01:21:04.957Z,3.27
2023-04-12T01:23:50.363Z,3.00
2023-04-12T01:26:40.526Z,3.00
2023-04-12T01:29:12.838Z,3.00
2023-04-12T01:31:43.289Z,2.80
2023-04-12T01:34:14.835Z,3.07
2023-04-12T01:36:47.022Z,2.63
2023-04-12T01:39:15.715Z,2.90
2023-04-12T01:41:45.625Z,2.77
2023-04-12T01:44:16.802Z,2.23
2023-04-12T01:46:46.798Z,2.20
2023-04-12T01:49:16.722Z,2.50
2023-04-12T01:51:52.929Z,2.10
2023-04-12T01:54:24.135Z,2.20
2023-04-12T01:56:58.028Z,1.97
2023-04-12T01:59:33.485Z,2.30
2023-04-12T02:02:03.354Z,2.03
2023-04-12T02:04:32.633Z,2.03
2023-04-12T02:07:01.220Z,1.90
2023-04-12T02:09:29.870Z,2.40
2023-04-12T02:11:58.186Z,2.33
2023-04-12T02:14:28.004Z,1.97
2023-04-12T02:16:58.293Z,2.97
2023-04-12T02:19:27.093Z,2.20
2023-04-12T02:21:55.893Z,2.30
2023-04-12T02:24:24.180Z,1.97
2023-04-12T02:26:52.546Z,2.30
2023-04-12T02:29:20.840Z,1.90
2023-04-12T02:31:51.235Z,2.03
2023-04-12T02:34:21.438Z,2.10
2023-04-12T02:36:50.053Z,2.20
2023-04-12T02:39:19.232Z,1.87
2023-04-12T02:41:48.167Z,2.50
2023-04-12T02:44:16.944Z,2.40
2023-04-12T02:46:45.472Z,2.37
2023-04-12T02:49:14.959Z,2.83
2023-04-12T02:51:43.804Z,2.40
2023-04-12T02:54:12.820Z,2.50
2023-04-12T02:56:41.171Z,2.20
2023-04-12T02:59:09.642Z,2.50
2023-04-12T03:01:39.464Z,2.60
2023-04-12T03:04:08.076Z,2.20
2023-04-12T03:06:40.306Z,2.57
2023-04-12T03:09:11.479Z,2.43
2023-04-12T03:11:40.822Z,2.20
2023-04-12T03:14:09.078Z,2.30
2023-04-12T03:16:37.329Z,2.40
2023-04-12T03:19:06.353Z,2.37
2023-04-12T03:21:34.830Z,2.50
2023-04-12T03:24:05.465Z,2.70
2023-04-12T03:26:33.984Z,2.17
2023-04-12T03:29:06.026Z,2.27
2023-04-12T03:31:34.972Z,2.30
2023-04-12T03:34:03.569Z,2.10
2023-04-12T03:36:31.891Z,2.33
2023-04-12T03:39:00.462Z,2.40
2023-04-12T03:41:30.327Z,2.33
2023-04-12T03:43:59.102Z,2.10
2023-04-12T03:46:27.763Z,2.30
2023-04-12T03:48:56.902Z,2.20
2023-04-12T03:51:26.736Z,2.60
2023-04-12T03:53:55.677Z,2.57
2023-04-12T03:56:24.350Z,2.47
2023-04-12T03:58:54.829Z,2.50
2023-04-12T04:01:23.950Z,2.50
2023-04-12T04:03:52.535Z,2.07
2023-04-12T04:06:21.375Z,2.50
2023-04-12T04:08:50.344Z,2.40
2023-04-12T04:11:18.664Z,2.47
2023-04-12T04:13:47.766Z,2.50
2023-04-12T04:16:18.236Z,2.30
2023-04-12T04:18:46.806Z,2.23
2023-04-12T04:21:15.442Z,2.23
2023-04-12T04:23:48.044Z,2.47
2023-04-12T04:26:17.042Z,2.67
2023-04-12T04:28:46.516Z,2.80
2023-04-12T04:31:17.443Z,2.60
2023-04-12T04:33:47.540Z,3.00
2023-04-12T04:36:16.675Z,2.50
2023-04-12T04:38:45.974Z,3.10
2023-04-12T04:41:14.459Z,2.30
2023-04-12T04:43:42.691Z,2.50
2023-04-12T04:46:11.205Z,2.73
2023-04-12T04:48:40.815Z,2.70
2023-04-12T04:51:10.662Z,2.50
2023-04-12T04:53:39.121Z,2.33
2023-04-12T04:56:08.825Z,2.87
2023-04-12T04:58:37.240Z,2.73
2023-04-12T05:01:07.123Z,2.97
2023-04-12T05:03:40.996Z,2.40
2023-04-12T05:06:19.696Z,3.00
2023-04-12T05:08:49.386Z,2.60
2023-04-12T05:11:18.880Z,3.30
2023-04-12T05:13:47.139Z,3.43
2023-04-12T05:16:17.029Z,3.07
2023-04-12T05:18:46.079Z,3.47
2023-04-12T05:21:14.416Z,3.90
2023-04-12T05:23:46.633Z,3.53
2023-04-12T05:26:15.878Z,3.03
2023-04-12T05:28:45.173Z,3.50
2023-04-12T05:31:13.555Z,3.47
2023-04-12T05:33:41.817Z,3.30
2023-04-12T05:36:10.893Z,3.33
2023-04-12T05:38:39.617Z,3.20
2023-04-12T05:41:09.319Z,3.40
2023-04-12T05:43:38.429Z,2.63
2023-04-12T05:46:08.155Z,2.77
2023-04-12T05:48:37.141Z,2.90
2023-04-12T05:51:06.256Z,2.40
2023-04-12T05:53:34.815Z,2.50
2023-04-12T05:56:03.447Z,2.20
2023-04-12T05:58:34.271Z,2.57
2023-04-12T06:01:02.617Z,2.50
2023-04-12T06:03:32.370Z,2.73
2023-04-12T06:06:02.452Z,3.00
2023-04-12T06:08:31.153Z,3.20
2023-04-12T06:10:59.749Z,2.60
2023-04-12T06:13:28.136Z,2.83
2023-04-12T06:15:57.929Z,2.37
2023-04-12T06:18:29.429Z,3.00
2023-04-12T06:20:58.504Z,3.10
2023-04-12T06:23:27.148Z,3.13
2023-04-12T06:25:55.719Z,2.40
2023-04-12T06:28:25.005Z,2.60
2023-04-12T06:30:53.955Z,2.77
2023-04-12T06:33:24.287Z,3.00
2023-04-12T06:35:52.773Z,2.80
2023-04-12T06:38:24.338Z,2.93
2023-04-12T06:40:53.352Z,2.60
2023-04-12T06:43:22.796Z,2.80
2023-04-12T06:45:51.865Z,13.47
2023-04-12T06:48:20.229Z,5.90
2023-04-12T06:50:50.796Z,8.33
2023-04-12T06:53:19.270Z,4.13
2023-04-12T06:55:47.836Z,3.13
2023-04-12T06:58:18.463Z,5.47
2023-04-12T07:00:46.798Z,7.47
2023-04-12T07:03:15.180Z,3.63
2023-04-12T07:05:45.353Z,3.40
2023-04-12T07:08:15.446Z,3.00
2023-04-12T07:10:43.912Z,3.07
2023-04-12T07:13:13.267Z,2.77
2023-04-12T07:15:43.357Z,2.80
2023-04-12T07:18:14.073Z,2.87
2023-04-12T07:20:42.633Z,2.63
2023-04-12T07:23:13.399Z,2.60
2023-04-12T07:25:46.398Z,2.47
2023-04-12T07:28:15.103Z,2.63
2023-04-12T07:30:43.618Z,2.90
2023-04-12T07:33:19.503Z,3.27
2023-04-12T07:35:48.806Z,2.60
2023-04-12T07:38:17.428Z,2.80
2023-04-12T07:40:49.884Z,2.60
2023-04-12T07:43:19.021Z,2.83
2023-04-12T07:45:47.734Z,2.30
2023-04-12T07:48:19.176Z,2.93
2023-04-12T07:50:47.866Z,2.73
2023-04-12T07:53:21.281Z,3.00
2023-04-12T07:55:51.739Z,2.50
2023-04-12T07:58:21.319Z,3.13
2023-04-12T08:00:51.507Z,2.63
2023-04-12T08:03:20.725Z,2.50
2023-04-12T08:05:53.735Z,2.47
2023-04-12T08:08:23.671Z,2.67
2023-04-12T08:10:54.560Z,2.20
2023-04-12T08:13:24.044Z,2.53
2023-04-12T08:15:52.472Z,2.40
2023-04-12T08:18:21.110Z,2.63
2023-04-12T08:20:52.063Z,2.40
2023-04-12T08:23:21.616Z,2.77
2023-04-12T08:25:50.776Z,2.47
2023-04-12T08:28:22.679Z,2.10
2023-04-12T08:30:51.070Z,2.40
2023-04-12T08:33:19.589Z,2.00
2023-04-12T08:35:48.552Z,2.30
2023-04-12T08:38:17.466Z,2.27
2023-04-12T08:40:47.287Z,2.10
2023-04-12T08:43:18.747Z,2.27
2023-04-12T08:45:51.798Z,2.30
2023-04-12T08:48:22.625Z,2.47
2023-04-12T08:50:52.060Z,2.10
2023-04-12T08:53:20.725Z,2.10
2023-04-12T08:55:49.358Z,2.00
2023-04-12T08:58:19.230Z,2.27
2023-04-12T09:00:49.985Z,2.03
2023-04-12T09:03:19.203Z,1.93
2023-04-12T09:05:47.832Z,2.20
2023-04-12T09:08:17.982Z,2.00
2023-04-12T09:10:46.593Z,2.10
2023-04-12T09:13:15.302Z,2.43
2023-04-12T09:15:51.886Z,2.43
2023-04-12T09:18:20.676Z,2.13
2023-04-12T09:20:49.514Z,1.87
2023-04-12T09:23:19.933Z,2.30
2023-04-12T09:25:52.096Z,2.43
2023-04-12T09:28:25.843Z,1.93
2023-04-12T09:30:56.649Z,2.03
2023-04-12T09:33:34.847Z,2.30
2023-04-12T09:36:04.496Z,2.50
2023-04-12T09:38:36.809Z,3.03
2023-04-12T09:41:22.222Z,2.20
2023-04-12T09:43:53.186Z,2.73
2023-04-12T09:46:27.082Z,2.20
2023-04-12T09:48:59.085Z,2.50
2023-04-12T09:51:31.447Z,2.30
2023-04-12T09:54:01.518Z,1.93
2023-04-12T09:56:32.358Z,2.13
2023-04-12T09:59:03.615Z,2.30
2023-04-12T10:01:36.810Z,2.00
2023-04-12T10:04:08.922Z,2.10
2023-04-12T10:06:38.154Z,2.37
2023-04-12T10:09:06.968Z,1.73
2023-04-12T10:11:36.068Z,1.63
2023-04-12T10:14:05.438Z,1.90
2023-04-12T10:16:36.530Z,2.03
2023-04-12T10:19:05.432Z,1.70
2023-04-12T10:21:33.922Z,1.90
2023-04-12T10:24:02.854Z,1.80
2023-04-12T10:26:32.651Z,1.70
2023-04-12T10:29:25.380Z,2.00
2023-04-12T10:31:56.172Z,1.90
2023-04-12T10:34:31.200Z,1.93
2023-04-12T10:37:01.676Z,1.70
2023-04-12T10:39:39.158Z,1.80
2023-04-12T10:42:27.426Z,1.73
2023-04-12T10:45:00.369Z,1.70
2023-04-12T10:48:03.838Z,1.70
2023-04-12T10:50:34.050Z,1.93
2023-04-12T10:53:22.098Z,1.93
2023-04-12T10:55:50.773Z,1.70
2023-04-12T10:58:57.660Z,2.07
2023-04-12T11:01:27.809Z,1.70
2023-04-12T11:04:18.233Z,1.80
2023-04-12T11:06:59.127Z,1.70
2023-04-12T11:09:29.612Z,1.77
2023-04-12T11:12:00.246Z,1.63
2023-04-12T11:14:31.510Z,1.70
2023-04-12T11:17:24.746Z,1.80
2023-04-12T11:19:57.880Z,2.00
2023-04-12T11:22:30.108Z,1.63
2023-04-12T11:24:59.943Z,2.00
2023-04-12T11:27:29.534Z,1.83
2023-04-12T11:30:04.414Z,1.53
2023-04-12T11:32:34.784Z,1.70
2023-04-12T11:35:04.925Z,1.77
2023-04-12T11:37:35.332Z,2.07
2023-04-12T11:40:06.636Z,1.47
2023-04-12T11:42:36.159Z,1.80
2023-04-12T11:45:12.218Z,2.30
2023-04-12T11:47:44.843Z,1.90
2023-04-12T11:50:28.597Z,1.77
2023-04-12T11:52:57.172Z,2.10
2023-04-12T11:55:27.075Z,2.00
2023-04-12T11:57:55.954Z,2.03
2023-04-12T12:00:25.674Z,2.10
2023-04-12T12:03:06.723Z,2.27
2023-04-12T12:05:38.722Z,2.07
2023-04-12T12:08:09.047Z,2.60
2023-04-12T12:10:52.269Z,2.50
2023-04-12T12:13:27.653Z,2.50
2023-04-12T12:15:56.181Z,2.50
2023-04-12T12:18:27.506Z,2.30
2023-04-12T12:20:57.804Z,2.40
2023-04-12T12:23:31.022Z,3.00
2023-04-12T12:26:14.313Z,2.53
2023-04-12T12:28:51.310Z,2.70
2023-04-12T12:31:22.349Z,3.10
2023-04-12T12:33:55.091Z,3.03
2023-04-12T12:36:33.373Z,3.00
2023-04-12T12:39:10.501Z,2.40
2023-04-12T12:41:40.062Z,2.13
2023-04-12T12:44:09.317Z,2.40
2023-04-12T12:46:53.661Z,1.80
2023-04-12T12:49:29.094Z,1.70
2023-04-12T12:51:59.038Z,1.70
2023-04-12T12:54:40.632Z,1.87
2023-04-12T12:57:10.769Z,1.70
2023-04-12T12:59:48.043Z,1.50
2023-04-12T13:02:18.328Z,1.70
2023-04-12T13:04:47.144Z,1.57
2023-04-12T13:07:16.881Z,1.70
2023-04-12T13:09:46.725Z,2.60
2023-04-12T13:12:16.341Z,1.50
2023-04-12T13:14:45.282Z,1.50
2023-04-12T13:17:13.769Z,1.40
2023-04-12T13:19:42.278Z,1.37
2023-04-12T13:22:10.640Z,1.20
2023-04-12T13:24:40.223Z,1.00
2023-04-12T13:27:09.029Z,1.10
2023-04-12T13:29:37.600Z,1.63
2023-04-12T13:32:06.501Z,1.33
2023-04-12T13:34:35.601Z,1.40
2023-04-12T13:37:04.101Z,1.30
2023-04-12T13:39:34.195Z,1.50
2023-04-12T13:42:03.906Z,1.40
2023-04-12T13:44:32.128Z,1.50
2023-04-12T13:47:01.474Z,1.50
2023-04-12T13:49:30.102Z,1.50
2023-04-12T13:51:59.620Z,1.60
2023-04-12T13:54:28.037Z,1.40
2023-04-12T13:56:57.530Z,1.83
2023-04-12T13:59:27.297Z,1.77
2023-04-12T14:01:55.886Z,1.60
2023-04-12T14:04:24.493Z,1.50
2023-04-12T14:06:53.559Z,1.87
2023-04-12T14:09:26.049Z,2.10
2023-04-12T14:11:56.170Z,1.70
2023-04-12T14:14:25.535Z,1.50
2023-04-12T14:16:59.931Z,1.67
2023-04-12T14:19:29.703Z,1.83
2023-04-12T14:21:58.451Z,1.77
2023-04-12T14:24:27.623Z,1.50
2023-04-12T14:26:57.258Z,1.60
2023-04-12T14:29:29.355Z,1.60
2023-04-12T14:31:59.097Z,1.80
2023-04-12T14:34:27.660Z,1.50
2023-04-12T14:36:58.205Z,1.60
2023-04-12T14:39:27.492Z,1.60
2023-04-12T14:41:59.520Z,1.50
2023-04-12T14:44:28.269Z,1.70
2023-04-12T14:46:56.765Z,1.47
2023-04-12T14:49:28.433Z,1.80
2023-04-12T14:52:04.607Z,2.40
2023-04-12T14:54:35.702Z,2.90
2023-04-12T14:57:05.188Z,8.73
2023-04-12T14:59:34.192Z,2.10
2023-04-12T15:02:02.806Z,2.80
2023-04-12T15:04:32.739Z,18.07
2023-04-12T15:07:04.095Z,6.50
2023-04-12T15:09:33.464Z,3.73
2023-04-12T15:12:02.203Z,1.97
2023-04-12T15:14:31.549Z,1.80
2023-04-12T15:17:00.170Z,1.80
2023-04-12T15:19:34.630Z,1.80
2023-04-12T15:22:12.572Z,1.90
2023-04-12T15:24:40.843Z,1.60
2023-04-12T15:27:09.634Z,1.70
2023-04-12T15:29:38.008Z,1.73
2023-04-12T15:32:08.871Z,1.83
2023-04-12T15:34:37.941Z,1.43
2023-04-12T15:37:11.069Z,1.50
2023-04-12T15:39:40.318Z,1.50
2023-04-12T15:42:08.799Z,1.47
2023-04-12T15:44:38.349Z,1.50
2023-04-12T15:47:11.670Z,1.30
2023-04-12T15:49:41.785Z,1.60
2023-04-12T15:52:13.042Z,1.40
2023-04-12T15:54:43.570Z,1.40
2023-04-12T15:57:12.601Z,1.37
2023-04-12T15:59:42.203Z,1.40
2023-04-12T16:02:12.104Z,2.03
2023-04-12T16:04:44.520Z,1.50
2023-04-12T16:07:14.636Z,1.10
2023-04-12T16:09:43.830Z,1.40
2023-04-12T16:12:12.603Z,1.27
2023-04-12T16:14:43.297Z,1.53
2023-04-12T16:17:11.556Z,1.10
2023-04-12T16:19:39.916Z,1.50
2023-04-12T16:22:08.129Z,1.20
2023-04-12T16:24:38.083Z,1.50
2023-04-12T16:27:07.164Z,1.30
2023-04-12T16:29:35.516Z,1.30
2023-04-12T16:32:07.387Z,1.20
2023-04-12T16:34:35.869Z,1.67
2023-04-12T16:37:05.162Z,1.70
2023-04-12T16:39:34.318Z,1.40
2023-04-12T16:42:06.185Z,1.30
2023-04-12T16:44:35.192Z,1.50
2023-04-12T16:47:04.994Z,1.20
2023-04-12T16:49:33.778Z,1.30
2023-04-12T16:52:02.353Z,2.10
2023-04-12T16:54:32.157Z,1.30
2023-04-12T16:57:00.620Z,1.90
2023-04-12T16:59:32.689Z,1.67
2023-04-12T17:02:01.538Z,1.50
2023-04-12T17:04:30.061Z,1.23
2023-04-12T17:06:58.941Z,1.70
2023-04-12T17:09:27.569Z,1.30
2023-04-12T17:11:56.600Z,1.43
2023-04-12T17:14:25.582Z,1.37
2023-04-12T17:16:55.248Z,1.30
2023-04-12T17:19:23.544Z,1.40
2023-04-12T17:21:52.585Z,1.50
2023-04-12T17:24:21.083Z,1.80
2023-04-12T17:26:49.887Z,1.77
2023-04-12T17:29:19.506Z,1.90
2023-04-12T17:31:50.680Z,1.80
2023-04-12T17:34:22.833Z,1.90
2023-04-12T17:36:55.134Z,1.80
2023-04-12T17:39:23.574Z,1.70
2023-04-12T17:41:51.832Z,2.00
2023-04-12T17:44:20.054Z,2.10
2023-04-12T17:46:48.674Z,2.07
2023-04-12T17:49:17.065Z,2.10
2023-04-12T17:51:46.905Z,2.13
2023-04-12T17:54:15.130Z,2.00
2023-04-12T17:56:43.471Z,2.50
2023-04-12T17:59:12.087Z,2.37
2023-04-12T18:01:41.814Z,2.57
2023-04-12T18:04:10.310Z,2.70
2023-04-12T18:06:40.097Z,2.40
2023-04-12T18:09:10.929Z,2.40
2023-04-12T18:11:39.816Z,2.83
2023-04-12T18:14:08.362Z,3.00
2023-04-12T18:16:37.505Z,2.97
2023-04-12T18:19:08.183Z,2.77
2023-04-12T18:21:37.039Z,3.00
2023-04-12T18:24:06.246Z,2.73
2023-04-12T18:26:36.464Z,2.73
2023-04-12T18:29:06.636Z,3.23
2023-04-12T18:31:38.962Z,2.70
2023-04-12T18:34:08.461Z,2.70
2023-04-12T18:36:37.866Z,3.10
2023-04-12T18:39:08.054Z,3.13
2023-04-12T18:41:38.504Z,3.67
2023-04-12T18:44:11.756Z,3.40
2023-04-12T18:46:41.115Z,3.40
2023-04-12T18:49:11.785Z,3.43
2023-04-12T18:51:42.889Z,4.50
2023-04-12T18:54:23.466Z,3.57
2023-04-12T18:56:54.364Z,4.00
2023-04-12T18:59:25.931Z,3.90
2023-04-12T19:01:55.565Z,3.63
2023-04-12T19:04:24.130Z,3.40
2023-04-12T19:06:53.711Z,2.97
2023-04-12T19:09:24.281Z,2.93
2023-04-12T19:11:56.963Z,3.00
2023-04-12T19:14:28.086Z,2.93
2023-04-12T19:16:57.425Z,3.00
2023-04-12T19:19:28.032Z,2.70
2023-04-12T19:21:58.383Z,2.77
2023-04-12T19:24:28.510Z,3.00
2023-04-12T19:26:58.773Z,2.93
2023-04-12T19:29:32.589Z,2.97
2023-04-12T19:32:02.447Z,2.70
2023-04-12T19:34:32.067Z,3.20
2023-04-12T19:37:00.902Z,2.80
2023-04-12T19:39:30.594Z,3.17
2023-04-12T19:42:01.873Z,3.03
2023-04-12T19:44:33.007Z,3.30
2023-04-12T19:47:01.701Z,2.70
2023-04-12T19:49:33.218Z,3.00
2023-04-12T19:52:03.248Z,2.90
2023-04-12T19:54:32.684Z,3.20
2023-04-12T19:57:05.041Z,3.60
2023-04-12T19:59:34.407Z,3.43
2023-04-12T20:02:02.811Z,3.90
2023-04-12T20:04:31.539Z,3.70
2023-04-12T20:07:01.046Z,3.93
2023-04-12T20:09:30.083Z,3.80
2023-04-12T20:11:58.319Z,4.37
2023-04-12T20:14:28.119Z,4.00
2023-04-12T20:16:56.816Z,4.00
2023-04-12T20:19:28.381Z,3.80
2023-04-12T20:22:01.755Z,3.53
2023-04-12T20:24:34.605Z,3.43
2023-04-12T20:27:03.665Z,3.43
2023-04-12T20:29:37.770Z,3.30
2023-04-12T20:32:06.683Z,3.27
2023-04-12T20:34:37.328Z,2.90
2023-04-12T20:37:05.972Z,3.00
2023-04-12T20:39:34.216Z,2.40
2023-04-12T20:42:02.365Z,2.20
2023-04-12T20:44:31.349Z,2.00
2023-04-12T20:47:02.667Z,2.23
2023-04-12T20:49:31.826Z,2.03
2023-04-12T20:52:00.733Z,1.90
2023-04-12T20:54:31.781Z,1.90
2023-04-12T20:57:04.096Z,1.40
2023-04-12T20:59:33.514Z,1.50
2023-04-12T21:02:03.257Z,1.60
2023-04-12T21:04:36.459Z,1.43
2023-04-12T21:07:05.958Z,0.97
2023-04-12T21:09:35.465Z,1.30
2023-04-12T21:12:06.176Z,1.40
2023-04-12T21:14:35.558Z,1.37
2023-04-12T21:17:07.880Z,1.23
2023-04-12T21:19:39.714Z,1.33
2023-04-12T21:22:08.841Z,1.50
2023-04-12T21:24:38.609Z,1.10
2023-04-12T21:27:08.289Z,1.10
2023-04-12T21:29:41.506Z,1.07
2023-04-12T21:32:12.035Z,1.20
2023-04-12T21:34:40.477Z,0.80
2023-04-12T21:37:09.084Z,1.17
2023-04-12T21:39:39.223Z,1.20
2023-04-12T21:42:07.462Z,1.07
2023-04-12T21:44:36.221Z,1.10
2023-04-12T21:47:04.458Z,1.20
2023-04-12T21:49:34.408Z,0.97
2023-04-12T21:52:04.135Z,1.27
2023-04-12T21:54:36.778Z,0.80
2023-04-12T21:57:06.210Z,0.90
2023-04-12T21:59:34.500Z,1.23
2023-04-12T22:02:02.956Z,1.00
2023-04-12T22:04:31.540Z,1.00
2023-04-12T22:07:04.028Z,0.80
2023-04-12T22:09:32.577Z,1.00
2023-04-12T22:12:02.275Z,1.07
2023-04-12T22:14:31.744Z,0.90
2023-04-12T22:17:00.135Z,1.20
2023-04-12T22:19:29.063Z,1.17
2023-04-12T22:21:58.121Z,1.13
2023-04-12T22:24:28.305Z,0.93
2023-04-12T22:26:57.652Z,1.50
2023-04-12T22:29:26.668Z,1.13
2023-04-12T22:31:55.746Z,1.20
2023-04-12T22:34:24.461Z,0.80
2023-04-12T22:38:03.257Z,1.10
2023-04-12T22:40:40.095Z,0.70
2023-04-12T22:43:17.976Z,0.97
2023-04-12T22:45:47.106Z,0.97
2023-04-12T22:48:15.964Z,0.80
2023-04-12T22:50:45.717Z,0.80
2023-04-12T22:53:15.819Z,0.87
2023-04-12T22:55:45.565Z,0.80
2023-04-12T22:58:15.503Z,0.67
2023-04-12T23:00:44.073Z,0.63
2023-04-12T23:03:12.572Z,1.00
2023-04-12T23:05:42.341Z,0.70
2023-04-12T23:08:10.696Z,0.80
2023-04-12T23:10:39.303Z,1.17
2023-04-12T23:13:09.928Z,0.90
2023-04-12T23:15:40.705Z,0.80
2023-04-12T23:18:09.176Z,0.90
2023-04-12T23:20:39.043Z,0.83
2023-04-12T23:23:08.062Z,0.70
2023-04-12T23:25:39.866Z,0.80
2023-04-12T23:28:13.991Z,1.00
2023-04-12T23:30:45.004Z,0.90
2023-04-12T23:33:13.184Z,0.73
2023-04-12T23:35:42.487Z,0.70
2023-04-12T23:38:15.762Z,1.07
2023-04-12T23:40:44.399Z,1.10
2023-04-12T23:43:14.063Z,1.00
2023-04-12T23:45:43.239Z,0.90
2023-04-12T23:48:11.636Z,1.10
2023-04-12T23:50:40.378Z,0.70
2023-04-12T23:53:09.591Z,0.80
2023-04-12T23:55:37.888Z,0.63
2023-04-12T23:58:06.802Z,0.60
